createdAt,value
2018-11-05T00:01:41.563Z,40.17
2018-11-05T00:04:10.535Z,38.13
2018-11-05T00:06:39.622Z,38.70
2018-11-05T00:09:10.010Z,36.70
2018-11-05T00:11:38.971Z,37.93
2018-11-05T00:14:08.663Z,33.23
2018-11-05T00:16:37.954Z,35.47
2018-11-05T00:19:07.233Z,36.20
2018-11-05T00:21:36.225Z,35.23
2018-11-05T00:24:05.461Z,39.90
2018-11-05T00:26:34.437Z,33.03
2018-11-05T00:29:03.363Z,37.03
2018-11-05T00:31:32.324Z,37.70
2018-11-05T00:34:01.242Z,36.90
2018-11-05T00:36:30.274Z,36.07
2018-11-05T00:38:59.373Z,35.20
2018-11-05T00:41:28.374Z,37.53
2018-11-05T00:43:57.361Z,41.00
2018-11-05T00:46:26.278Z,38.13
2018-11-05T00:48:55.226Z,35.93
2018-11-05T00:51:24.613Z,36.70
2018-11-05T00:53:53.602Z,36.27
2018-11-05T00:56:22.577Z,34.23
2018-11-05T00:58:51.628Z,35.27
2018-11-05T01:01:21.623Z,33.03
2018-11-05T01:03:50.550Z,37.87
2018-11-05T01:06:19.481Z,38.07
2018-11-05T01:08:48.446Z,36.37
2018-11-05T01:11:17.353Z,32.47
2018-11-05T01:13:46.278Z,37.17
2018-11-05T01:16:15.259Z,34.67
2018-11-05T01:18:44.842Z,34.83
2018-11-05T01:21:13.761Z,34.27
2018-11-05T01:23:42.714Z,31.97
2018-11-05T01:26:11.833Z,28.67
2018-11-05T01:28:41.081Z,29.40
2018-11-05T01:31:10.074Z,28.83
2018-11-05T01:33:39.036Z,28.07
2018-11-05T01:36:07.970Z,30.03
2018-11-05T01:38:36.901Z,30.90
2018-11-05T01:41:05.880Z,31.87
2018-11-05T01:43:34.765Z,31.60
2018-11-05T01:46:03.706Z,29.97
2018-11-05T01:48:32.834Z,31.73
2018-11-05T01:51:01.794Z,31.47
2018-11-05T01:53:31.778Z,33.10
2018-11-05T01:56:00.684Z,33.33
2018-11-05T01:58:29.780Z,32.60
2018-11-05T02:00:58.843Z,30.90
2018-11-05T02:03:27.742Z,34.50
2018-11-05T02:05:56.821Z,33.77
2018-11-05T02:08:25.733Z,35.03
2018-11-05T02:10:54.806Z,36.30
2018-11-05T02:13:23.780Z,33.90
2018-11-05T02:15:52.665Z,33.87
2018-11-05T02:18:21.650Z,34.20
2018-11-05T02:20:50.617Z,34.67
2018-11-05T02:23:19.510Z,32.93
2018-11-05T02:25:48.410Z,34.27
2018-11-05T02:28:17.335Z,35.30
2018-11-05T02:30:46.274Z,31.40
2018-11-05T02:33:15.384Z,33.47
2018-11-05T02:35:44.299Z,35.10
2018-11-05T02:38:13.236Z,34.50
2018-11-05T02:40:42.310Z,36.93
2018-11-05T02:43:11.241Z,36.43
2018-11-05T02:45:40.178Z,35.10
2018-11-05T02:48:10.172Z,37.30
2018-11-05T02:50:40.185Z,35.80
2018-11-05T02:53:09.257Z,34.80
2018-11-05T02:55:38.253Z,35.80
2018-11-05T02:58:07.272Z,34.80
2018-11-05T03:00:36.220Z,34.53
2018-11-05T03:03:05.139Z,33.63
2018-11-05T03:05:34.105Z,33.57
2018-11-05T03:08:03.040Z,33.07
2018-11-05T03:10:31.956Z,31.53
2018-11-05T03:13:00.846Z,32.80
2018-11-05T03:15:29.835Z,34.10
2018-11-05T03:17:58.806Z,32.17
2018-11-05T03:20:27.709Z,30.50
2018-11-05T03:22:56.712Z,32.30
2018-11-05T03:25:25.629Z,31.30
2018-11-05T03:27:54.846Z,29.80
2018-11-05T03:30:23.771Z,30.63
2018-11-05T03:32:52.666Z,29.60
2018-11-05T03:35:21.582Z,29.20
2018-11-05T03:37:50.513Z,29.97
2018-11-05T03:40:19.453Z,30.20
2018-11-05T03:42:48.354Z,28.00
2018-11-05T03:45:17.522Z,28.57
2018-11-05T03:47:46.466Z,29.13
2018-11-05T03:50:17.030Z,30.53
2018-11-05T03:52:46.729Z,25.10
2018-11-05T03:55:16.747Z,28.70
2018-11-05T03:57:45.646Z,28.00
2018-11-05T04:00:15.681Z,28.70
2018-11-05T04:02:44.618Z,28.90
2018-11-05T04:05:13.907Z,28.23
2018-11-05T04:07:42.866Z,30.77
2018-11-05T04:10:12.829Z,30.00
2018-11-05T04:12:41.792Z,29.30
2018-11-05T04:15:11.055Z,28.90
2018-11-05T04:17:39.994Z,29.47
2018-11-05T04:20:10.559Z,30.47
2018-11-05T04:22:39.651Z,29.97
2018-11-05T04:25:08.606Z,29.70
2018-11-05T04:27:37.657Z,29.33
2018-11-05T04:30:09.726Z,31.03
2018-11-05T04:32:38.715Z,31.93
2018-11-05T04:35:07.939Z,32.50
2018-11-05T04:37:36.934Z,32.67
2018-11-05T04:40:06.693Z,30.90
2018-11-05T04:42:35.724Z,32.27
2018-11-05T04:45:05.761Z,35.23
2018-11-05T04:47:34.742Z,32.77
2018-11-05T04:50:04.846Z,32.80
2018-11-05T04:52:33.782Z,32.23
2018-11-05T04:55:02.746Z,35.30
2018-11-05T04:57:31.878Z,32.80
2018-11-05T05:00:05.058Z,31.97
2018-11-05T05:02:34.113Z,34.30
2018-11-05T05:05:03.253Z,34.50
2018-11-05T05:07:32.250Z,34.27
2018-11-05T05:10:01.349Z,34.33
2018-11-05T05:12:30.321Z,35.10
2018-11-05T05:14:59.665Z,32.67
2018-11-05T05:17:28.684Z,32.97
2018-11-05T05:19:57.615Z,34.87
2018-11-05T05:22:26.769Z,34.50
2018-11-05T05:24:55.715Z,33.90
2018-11-05T05:27:24.753Z,33.27
2018-11-05T05:29:53.740Z,37.03
2018-11-05T05:32:22.674Z,31.43
2018-11-05T05:34:51.646Z,33.00
2018-11-05T05:37:20.630Z,33.50
2018-11-05T05:39:49.910Z,32.20
2018-11-05T05:42:18.961Z,34.03
2018-11-05T05:44:47.932Z,33.13
2018-11-05T05:47:16.921Z,30.17
2018-11-05T05:49:46.006Z,33.23
2018-11-05T05:52:14.955Z,31.03
2018-11-05T05:54:43.997Z,30.50
2018-11-05T05:57:14.005Z,32.17
2018-11-05T05:59:43.136Z,34.20
2018-11-05T06:02:12.074Z,34.40
2018-11-05T06:04:41.406Z,34.73
2018-11-05T06:07:10.482Z,34.13
2018-11-05T06:09:39.545Z,33.60
2018-11-05T06:12:08.549Z,32.90
2018-11-05T06:14:37.497Z,33.97
2018-11-05T06:17:06.494Z,33.57
2018-11-05T06:19:35.795Z,32.07
2018-11-05T06:22:06.250Z,33.10
2018-11-05T06:24:35.213Z,33.53
2018-11-05T06:27:04.310Z,35.33
2018-11-05T06:29:33.382Z,35.30
2018-11-05T06:32:02.325Z,34.77
2018-11-05T06:34:31.289Z,34.70
2018-11-05T06:37:00.722Z,35.20
2018-11-05T06:39:29.881Z,36.60
2018-11-05T06:41:58.967Z,34.50
2018-11-05T06:44:27.845Z,37.53
2018-11-05T06:46:56.807Z,36.60
2018-11-05T06:49:25.913Z,35.80
2018-11-05T06:51:54.930Z,36.23
2018-11-05T06:54:23.893Z,34.13
2018-11-05T06:56:52.890Z,35.93
2018-11-05T06:59:22.205Z,38.40
2018-11-05T07:01:51.242Z,40.67
2018-11-05T07:04:20.369Z,40.20
2018-11-05T07:06:50.508Z,40.40
2018-11-05T07:09:19.482Z,47.20
2018-11-05T07:11:48.574Z,43.50
2018-11-05T07:14:17.665Z,46.50
2018-11-05T07:16:46.626Z,41.60
2018-11-05T07:19:15.710Z,44.40
2018-11-05T07:21:44.486Z,43.33
2018-11-05T07:24:13.433Z,44.47
2018-11-05T07:26:42.526Z,45.63
2018-11-05T07:29:11.590Z,45.50
2018-11-05T07:31:40.564Z,47.17
2018-11-05T07:34:09.500Z,40.80
2018-11-05T07:36:38.593Z,47.33
2018-11-05T07:39:09.284Z,43.43
2018-11-05T07:41:38.933Z,43.80
2018-11-05T07:44:08.029Z,45.37
2018-11-05T07:46:37.163Z,43.07
2018-11-05T07:49:06.166Z,50.60
2018-11-05T07:51:35.582Z,48.63
2018-11-05T07:54:04.755Z,51.87
2018-11-05T07:56:33.796Z,48.00
2018-11-05T07:59:03.817Z,49.70
2018-11-05T08:01:32.774Z,47.50
2018-11-05T08:04:01.721Z,46.63
2018-11-05T08:06:30.670Z,43.87
2018-11-05T08:09:00.721Z,51.60
2018-11-05T08:11:29.817Z,47.57
2018-11-05T08:13:58.797Z,43.63
2018-11-05T08:16:27.737Z,45.57
2018-11-05T08:18:56.697Z,42.77
2018-11-05T08:21:25.667Z,40.50
2018-11-05T08:23:54.651Z,40.17
2018-11-05T08:26:23.646Z,38.43
2018-11-05T08:28:52.718Z,39.77
2018-11-05T08:31:22.917Z,39.27
2018-11-05T08:33:52.050Z,38.50
2018-11-05T08:36:21.010Z,39.37
2018-11-05T08:38:50.105Z,39.97
2018-11-05T08:41:19.230Z,42.40
2018-11-05T08:43:48.197Z,37.90
2018-11-05T08:46:17.438Z,40.80
2018-11-05T08:48:46.414Z,43.23
2018-11-05T08:51:15.543Z,38.07
2018-11-05T08:53:44.397Z,38.97
2018-11-05T08:56:13.417Z,38.53
2018-11-05T08:58:42.399Z,38.10
2018-11-05T09:01:16.291Z,43.30
2018-11-05T09:03:46.385Z,40.57
2018-11-05T09:06:15.777Z,44.07
2018-11-05T09:08:45.269Z,39.40
2018-11-05T09:11:14.771Z,42.00
2018-11-05T09:13:43.458Z,40.80
2018-11-05T09:16:12.672Z,37.70
2018-11-05T09:18:41.684Z,42.63
2018-11-05T09:21:10.783Z,41.17
2018-11-05T09:23:39.779Z,39.23
2018-11-05T09:26:08.832Z,41.70
2018-11-05T09:28:37.953Z,43.17
2018-11-05T09:31:07.083Z,41.47
2018-11-05T09:33:36.056Z,42.10
2018-11-05T09:36:05.049Z,40.70
2018-11-05T09:38:34.018Z,40.27
2018-11-05T09:41:03.099Z,40.60
2018-11-05T09:43:32.029Z,40.47
2018-11-05T09:46:01.126Z,40.90
2018-11-05T09:48:30.134Z,39.03
2018-11-05T09:50:59.216Z,41.47
2018-11-05T09:53:28.189Z,41.00
2018-11-05T09:55:57.174Z,38.03
2018-11-05T09:58:26.155Z,42.10
2018-11-05T10:00:55.137Z,42.60
2018-11-05T10:03:24.320Z,42.50
2018-11-05T10:05:53.102Z,41.20
2018-11-05T10:08:22.242Z,38.70
2018-11-05T10:10:51.233Z,40.50
2018-11-05T10:13:20.156Z,40.70
2018-11-05T10:15:49.314Z,38.60
2018-11-05T10:18:18.278Z,40.10
2018-11-05T10:20:47.230Z,41.57
2018-11-05T10:23:16.443Z,41.47
2018-11-05T10:25:45.431Z,42.13
2018-11-05T10:28:14.626Z,44.37
2018-11-05T10:30:43.754Z,43.50
2018-11-05T10:33:12.855Z,39.13
2018-11-05T10:35:47.283Z,41.10
2018-11-05T10:38:16.256Z,44.50
2018-11-05T10:40:45.280Z,41.13
2018-11-05T10:43:14.249Z,42.23
2018-11-05T10:45:43.263Z,40.43
2018-11-05T10:48:12.274Z,39.60
2018-11-05T10:50:41.524Z,40.10
2018-11-05T10:53:10.382Z,40.63
2018-11-05T10:55:39.349Z,41.07
2018-11-05T10:58:08.334Z,41.13
2018-11-05T11:00:42.758Z,38.27
2018-11-05T11:03:14.919Z,39.13
2018-11-05T11:05:43.894Z,39.60
2018-11-05T11:08:12.910Z,36.17
2018-11-05T11:10:41.917Z,36.40
2018-11-05T11:13:11.038Z,35.20
2018-11-05T11:15:39.985Z,36.63
2018-11-05T11:18:09.148Z,38.00
2018-11-05T11:20:38.228Z,37.97
2018-11-05T11:23:07.302Z,35.80
2018-11-05T11:25:36.417Z,34.67
2018-11-05T11:28:05.860Z,36.00
2018-11-05T11:30:34.634Z,35.97
2018-11-05T11:33:03.650Z,34.73
2018-11-05T11:35:32.617Z,34.00
2018-11-05T11:38:02.006Z,34.67
2018-11-05T11:40:31.097Z,33.87
2018-11-05T11:43:00.149Z,33.13
2018-11-05T11:45:30.171Z,33.70
2018-11-05T11:47:59.186Z,34.20
2018-11-05T11:50:28.296Z,33.80
2018-11-05T11:52:57.450Z,34.00
2018-11-05T11:55:26.476Z,34.33
2018-11-05T11:57:55.408Z,32.97
2018-11-05T12:00:25.517Z,33.20
2018-11-05T12:02:54.954Z,33.57
2018-11-05T12:05:23.898Z,32.70
2018-11-05T12:07:52.767Z,33.80
2018-11-05T12:10:23.166Z,34.70
2018-11-05T12:12:52.136Z,34.67
2018-11-05T12:15:21.849Z,34.17
2018-11-05T12:17:52.288Z,32.67
2018-11-05T12:20:22.597Z,31.90
2018-11-05T12:22:52.006Z,31.73
2018-11-05T12:25:21.018Z,32.53
2018-11-05T12:27:50.000Z,30.37
2018-11-05T12:30:21.148Z,30.17
2018-11-05T12:32:50.955Z,30.23
2018-11-05T12:35:19.931Z,30.20
2018-11-05T12:37:50.066Z,32.13
2018-11-05T12:40:20.062Z,29.10
2018-11-05T12:42:49.785Z,28.83
2018-11-05T12:45:18.843Z,27.20
2018-11-05T12:47:48.817Z,28.40
2018-11-05T12:50:21.669Z,28.67
2018-11-05T12:52:51.787Z,30.13
2018-11-05T12:55:20.930Z,30.53
2018-11-05T12:57:49.946Z,29.43
2018-11-05T13:00:20.627Z,28.80
2018-11-05T13:02:54.619Z,33.43
2018-11-05T13:05:24.482Z,30.80
2018-11-05T13:07:53.474Z,31.73
2018-11-05T13:10:22.597Z,31.83
2018-11-05T13:12:51.539Z,30.10
2018-11-05T13:15:20.591Z,31.47
2018-11-05T13:17:49.614Z,31.90
2018-11-05T13:20:19.797Z,30.73
2018-11-05T13:22:48.940Z,31.53
2018-11-05T13:25:17.894Z,32.57
2018-11-05T13:27:48.105Z,31.93
2018-11-05T13:30:17.618Z,31.20
2018-11-05T13:32:46.877Z,30.60
2018-11-05T13:35:17.129Z,30.13
2018-11-05T13:37:46.408Z,30.70
2018-11-05T13:40:16.556Z,28.17
2018-11-05T13:42:46.261Z,28.30
2018-11-05T13:45:15.703Z,30.83
2018-11-05T13:47:45.367Z,29.80
2018-11-05T13:50:14.371Z,28.87
2018-11-05T13:52:43.157Z,26.60
2018-11-05T13:55:13.472Z,27.20
2018-11-05T13:57:43.706Z,28.23
2018-11-05T14:00:14.224Z,27.60
2018-11-05T14:02:43.217Z,27.57
2018-11-05T14:05:12.612Z,26.33
2018-11-05T14:07:41.893Z,25.80
2018-11-05T14:10:14.180Z,25.83
2018-11-05T14:12:44.658Z,25.60
2018-11-05T14:15:13.582Z,24.23
2018-11-05T14:17:43.230Z,26.30
2018-11-05T14:20:13.391Z,24.97
2018-11-05T14:22:42.985Z,24.37
2018-11-05T14:25:13.243Z,25.53
2018-11-05T14:27:43.502Z,24.63
2018-11-05T14:30:13.266Z,24.20
2018-11-05T14:32:44.532Z,25.53
2018-11-05T14:35:13.562Z,25.33
2018-11-05T14:37:42.694Z,23.50
2018-11-05T14:40:13.530Z,23.30
2018-11-05T14:42:42.675Z,22.53
2018-11-05T14:45:13.722Z,21.90
2018-11-05T14:47:43.897Z,22.67
2018-11-05T14:50:14.706Z,23.63
2018-11-05T14:52:43.872Z,23.07
2018-11-05T14:55:15.585Z,21.03
2018-11-05T14:57:45.491Z,21.53
2018-11-05T15:00:16.559Z,20.90
2018-11-05T15:02:46.535Z,23.30
2018-11-05T15:05:15.950Z,22.63
2018-11-05T15:07:46.053Z,22.50
2018-11-05T15:10:16.442Z,23.30
2018-11-05T15:12:45.515Z,23.00
2018-11-05T15:15:15.073Z,21.47
2018-11-05T15:17:44.691Z,21.90
2018-11-05T15:20:15.080Z,22.00
2018-11-05T15:22:43.805Z,23.53
2018-11-05T15:25:13.335Z,21.77
2018-11-05T15:27:42.442Z,22.77
2018-11-05T15:30:14.595Z,22.40
2018-11-05T15:32:43.897Z,24.90
2018-11-05T15:35:12.997Z,25.00
2018-11-05T15:37:42.840Z,23.00
2018-11-05T15:40:13.811Z,21.80
2018-11-05T15:42:43.082Z,21.90
2018-11-05T15:45:13.654Z,22.57
2018-11-05T15:47:43.201Z,22.77
2018-11-05T15:50:14.719Z,23.53
2018-11-05T15:52:44.292Z,22.37
2018-11-05T15:55:13.281Z,23.00
2018-11-05T15:57:43.558Z,23.17
2018-11-05T16:00:16.128Z,21.23
2018-11-05T16:02:46.559Z,22.07
2018-11-05T16:05:15.659Z,23.10
2018-11-05T16:07:45.006Z,24.00
2018-11-05T16:10:14.200Z,24.03
2018-11-05T16:12:43.241Z,22.93
2018-11-05T16:15:13.138Z,22.00
2018-11-05T16:17:42.165Z,24.37
2018-11-05T16:20:20.009Z,22.20
2018-11-05T16:22:49.910Z,24.27
2018-11-05T16:25:18.954Z,23.47
2018-11-05T16:27:48.111Z,24.17
2018-11-05T16:30:19.748Z,24.70
2018-11-05T16:32:49.338Z,24.73
2018-11-05T16:35:18.369Z,25.17
2018-11-05T16:37:47.336Z,22.50
2018-11-05T16:40:17.538Z,23.17
2018-11-05T16:42:47.649Z,22.70
2018-11-05T16:45:16.802Z,23.87
2018-11-05T16:47:46.020Z,25.07
2018-11-05T16:50:26.334Z,23.30
2018-11-05T16:52:55.607Z,23.57
2018-11-05T16:55:25.059Z,22.17
2018-11-05T16:57:54.101Z,22.70
2018-11-05T17:00:23.046Z,24.40
2018-11-05T17:02:52.048Z,23.47
2018-11-05T17:05:20.995Z,23.30
2018-11-05T17:07:50.094Z,23.03
2018-11-05T17:10:19.204Z,22.60
2018-11-05T17:12:48.294Z,22.90
2018-11-05T17:15:17.557Z,23.70
2018-11-05T17:17:46.693Z,21.80
2018-11-05T17:20:17.292Z,24.50
2018-11-05T17:22:46.426Z,23.53
2018-11-05T17:25:15.971Z,24.20
2018-11-05T17:27:45.681Z,22.60
2018-11-05T17:30:17.251Z,23.30
2018-11-05T17:32:46.350Z,21.43
2018-11-05T17:35:15.844Z,22.60
2018-11-05T17:37:45.547Z,24.00
2018-11-05T17:40:15.852Z,23.37
2018-11-05T17:42:44.749Z,23.53
2018-11-05T17:45:15.257Z,22.50
2018-11-05T17:47:44.627Z,23.57
2018-11-05T17:50:15.057Z,22.80
2018-11-05T17:52:44.440Z,24.60
2018-11-05T17:55:14.037Z,23.37
2018-11-05T17:57:44.130Z,22.57
2018-11-05T18:00:14.907Z,24.03
2018-11-05T18:02:44.031Z,23.90
2018-11-05T18:05:13.353Z,23.27
2018-11-05T18:07:43.713Z,24.43
2018-11-05T18:10:12.926Z,22.93
2018-11-05T18:12:42.925Z,21.30
2018-11-05T18:15:12.529Z,22.50
2018-11-05T18:17:42.317Z,22.37
2018-11-05T18:20:12.502Z,21.47
2018-11-05T18:22:41.834Z,23.00
2018-11-05T18:25:13.286Z,24.00
2018-11-05T18:27:42.384Z,23.03
2018-11-05T18:30:12.447Z,24.43
2018-11-05T18:32:41.504Z,23.90
2018-11-05T18:35:12.070Z,22.70
2018-11-05T18:37:41.833Z,23.63
2018-11-05T18:40:12.654Z,23.50
2018-11-05T18:42:42.263Z,22.00
2018-11-05T18:45:11.804Z,24.53
2018-11-05T18:47:40.843Z,25.03
2018-11-05T18:50:11.547Z,25.33
2018-11-05T18:52:40.798Z,23.00
2018-11-05T18:55:11.209Z,22.63
2018-11-05T18:57:40.624Z,22.57
2018-11-05T19:00:17.918Z,22.70
2018-11-05T19:02:47.401Z,21.37
2018-11-05T19:05:16.730Z,22.47
2018-11-05T19:07:46.010Z,23.03
2018-11-05T19:10:14.949Z,21.50
2018-11-05T19:12:43.922Z,23.10
2018-11-05T19:15:14.199Z,22.97
2018-11-05T19:17:44.230Z,22.90
2018-11-05T19:20:13.322Z,22.43
2018-11-05T19:22:42.919Z,21.80
2018-11-05T19:25:12.954Z,22.73
2018-11-05T19:27:42.350Z,22.63
2018-11-05T19:30:14.823Z,20.83
2018-11-05T19:32:45.238Z,20.90
2018-11-05T19:35:14.196Z,21.43
2018-11-05T19:37:44.263Z,21.43
2018-11-05T19:40:14.181Z,23.27
2018-11-05T19:42:44.257Z,20.30
2018-11-05T19:45:15.032Z,21.40
2018-11-05T19:47:44.150Z,20.93
2018-11-05T19:50:15.132Z,22.20
2018-11-05T19:52:46.073Z,22.20
2018-11-05T19:55:16.105Z,23.43
2018-11-05T19:57:45.750Z,22.40
2018-11-05T20:00:15.689Z,22.97
2018-11-05T20:02:45.250Z,21.37
2018-11-05T20:05:14.720Z,22.00
2018-11-05T20:07:44.214Z,21.60
2018-11-05T20:10:14.107Z,22.20
2018-11-05T20:12:44.071Z,21.53
2018-11-05T20:15:13.092Z,21.37
2018-11-05T20:17:43.205Z,21.43
2018-11-05T20:20:13.454Z,20.53
2018-11-05T20:22:42.596Z,20.27
2018-11-05T20:25:11.763Z,23.23
2018-11-05T20:27:41.493Z,21.97
2018-11-05T20:30:14.383Z,20.10
2018-11-05T20:32:44.421Z,20.50
2018-11-05T20:35:13.210Z,21.47
2018-11-05T20:37:42.207Z,21.20
2018-11-05T20:40:13.284Z,21.80
2018-11-05T20:42:43.432Z,19.80
2018-11-05T20:45:12.849Z,21.50
2018-11-05T20:47:42.057Z,22.23
2018-11-05T20:50:11.825Z,21.73
2018-11-05T20:52:40.982Z,18.50
2018-11-05T20:55:11.259Z,20.97
2018-11-05T20:57:41.282Z,23.10
2018-11-05T21:00:11.952Z,23.57
2018-11-05T21:02:41.389Z,20.77
2018-11-05T21:05:10.496Z,20.53
2018-11-05T21:07:40.513Z,20.97
2018-11-05T21:10:10.925Z,22.60
2018-11-05T21:12:40.642Z,21.83
2018-11-05T21:15:14.945Z,21.73
2018-11-05T21:17:44.871Z,23.60
2018-11-05T21:20:14.247Z,21.57
2018-11-05T21:22:43.606Z,24.17
2018-11-05T21:25:12.462Z,26.43
2018-11-05T21:27:42.371Z,29.93
2018-11-05T21:30:13.572Z,28.93
2018-11-05T21:32:42.659Z,27.53
2018-11-05T21:35:13.698Z,29.57
2018-11-05T21:37:43.073Z,30.10
2018-11-05T21:40:13.254Z,30.97
2018-11-05T21:42:43.303Z,32.33
2018-11-05T21:45:14.215Z,31.17
2018-11-05T21:47:43.923Z,29.90
2018-11-05T21:50:14.519Z,29.23
2018-11-05T21:52:44.086Z,30.73
2018-11-05T21:55:13.079Z,29.60
2018-11-05T21:57:43.249Z,31.93
2018-11-05T22:00:15.185Z,28.20
2018-11-05T22:02:49.780Z,27.00
2018-11-05T22:05:18.751Z,29.53
2018-11-05T22:07:49.062Z,27.13
2018-11-05T22:10:18.015Z,26.87
2018-11-05T22:12:47.574Z,23.87
2018-11-05T22:15:16.562Z,23.50
2018-11-05T22:17:45.749Z,22.53
2018-11-05T22:20:15.888Z,23.60
2018-11-05T22:22:45.094Z,25.37
2018-11-05T22:25:13.906Z,24.33
2018-11-05T22:27:43.054Z,25.70
2018-11-05T22:30:12.550Z,23.90
2018-11-05T22:32:41.515Z,23.53
2018-11-05T22:35:10.481Z,23.10
2018-11-05T22:37:39.447Z,25.10
2018-11-05T22:40:10.749Z,24.77
2018-11-05T22:42:39.852Z,24.50
2018-11-05T22:45:09.772Z,25.70
2018-11-05T22:47:38.870Z,24.40
2018-11-05T22:50:08.418Z,25.10
2018-11-05T22:52:38.027Z,26.30
2018-11-05T22:55:07.278Z,23.43
2018-11-05T22:57:37.246Z,25.63
2018-11-05T23:00:13.425Z,23.97
2018-11-05T23:02:46.535Z,25.47
2018-11-05T23:05:15.631Z,25.90
2018-11-05T23:07:44.731Z,23.43
2018-11-05T23:10:13.906Z,25.47
2018-11-05T23:12:42.908Z,25.40
2018-11-05T23:15:11.889Z,23.87
2018-11-05T23:17:40.869Z,24.67
2018-11-05T23:20:11.450Z,24.90
2018-11-05T23:22:41.241Z,25.77
2018-11-05T23:25:10.484Z,27.97
2018-11-05T23:27:39.878Z,26.60
2018-11-05T23:30:10.656Z,25.63
2018-11-05T23:32:40.258Z,24.43
2018-11-05T23:35:09.963Z,25.83
2018-11-05T23:37:39.760Z,25.20
2018-11-05T23:40:09.193Z,25.40
2018-11-05T23:42:38.874Z,26.20
2018-11-05T23:45:11.145Z,24.30
2018-11-05T23:47:40.205Z,24.37
2018-11-05T23:50:10.203Z,24.93
2018-11-05T23:52:39.251Z,26.37
2018-11-05T23:55:09.158Z,24.23
2018-11-05T23:57:38.211Z,26.63
